Time;durP1;ratioP1;P1;durP2;ratioP2;P2;SDS_P1;SDS_P2;PMS_P1;PMS_P2;Temp;Humidity;BMP_temperature;BMP_pressure;BME280_temperature;BME280_humidity;BME280_pressure;Samples;Min_cycle;Max_cycle;Signal;HPM_P1;HPM_P2
2023/03/20 00:01:14;;;;;;;60.75;26.00;;;10.60;99.90;;;;;;5081676;28;20059;-74
2023/03/20 00:03:40;;;;;;;63.50;25.23;;;10.50;99.90;;;;;;5083163;28;20082;-72
2023/03/20 00:06:18;;;;;;;63.63;25.95;;;10.50;99.90;;;;;;5083303;28;20497;-72
2023/03/20 00:08:46;;;;;;;63.10;25.42;;;10.50;99.90;;;;;;5083386;28;20033;-72
2023/03/20 00:11:29;;;;;;;63.33;25.98;;;10.50;99.90;;;;;;5081934;28;20024;-72
2023/03/20 00:14:07;;;;;;;68.15;25.90;;;10.40;99.90;;;;;;5083001;28;20031;-71
2023/03/20 00:16:36;;;;;;;66.63;26.10;;;10.40;99.90;;;;;;5083044;28;20056;-73
2023/03/20 00:19:02;;;;;;;63.88;25.48;;;10.30;99.90;;;;;;5083140;28;20028;-71
2023/03/20 00:21:28;;;;;;;68.43;27.05;;;10.30;99.90;;;;;;5083177;28;20099;-72
2023/03/20 00:23:55;;;;;;;62.42;25.60;;;10.20;99.90;;;;;;5081050;28;20078;-74
2023/03/20 00:26:31;;;;;;;66.43;26.23;;;10.20;99.90;;;;;;5082471;28;20021;-72
2023/03/20 00:28:57;;;;;;;67.03;25.30;;;10.20;99.90;;;;;;5082959;28;20042;-72
2023/03/20 00:31:24;;;;;;;69.28;26.75;;;10.20;99.90;;;;;;5082784;28;20032;-71
2023/03/20 00:33:50;;;;;;;66.72;27.08;;;10.20;99.90;;;;;;5082365;28;20023;-72
2023/03/20 00:36:16;;;;;;;70.40;27.33;;;10.10;99.90;;;;;;5082632;28;20043;-71
2023/03/20 00:38:41;;;;;;;65.97;26.42;;;10.10;99.90;;;;;;5080767;28;20070;-72
2023/03/20 00:41:23;;;;;;;61.45;25.35;;;10.00;99.90;;;;;;5082890;28;20016;-72
2023/03/20 00:43:53;;;;;;;68.20;25.40;;;10.00;99.90;;;;;;5082681;28;20056;-72
2023/03/20 00:46:19;;;;;;;72.03;26.77;;;9.90;99.90;;;;;;5082672;28;20113;-70
2023/03/20 00:48:46;;;;;;;65.43;26.17;;;9.90;99.90;;;;;;5081113;28;20016;-70
2023/03/20 00:51:12;;;;;;;70.72;28.20;;;9.90;99.90;;;;;;5083286;28;20046;-72
2023/03/20 00:53:37;;;;;;;68.55;26.95;;;9.80;99.90;;;;;;5090367;28;20024;-72
2023/03/20 00:56:04;;;;;;;68.57;27.52;;;9.80;99.90;;;;;;5086954;28;20042;-70
2023/03/20 00:58:30;;;;;;;68.15;26.23;;;9.80;99.90;;;;;;5081572;28;20017;-71
2023/03/20 01:00:56;;;;;;;69.07;24.58;;;9.80;99.90;;;;;;5082195;28;20060;-71
2023/03/20 01:03:24;;;;;;;65.07;25.00;;;9.80;99.90;;;;;;5082357;28;20036;-72
2023/03/20 01:05:51;;;;;;;65.95;24.73;;;9.70;99.90;;;;;;5081569;28;20066;-70
2023/03/20 01:08:23;;;;;;;63.67;25.73;;;9.70;99.90;;;;;;5080834;28;20025;-72
2023/03/20 01:10:53;;;;;;;60.22;25.67;;;9.60;99.90;;;;;;5082217;28;20031;-72
2023/03/20 01:13:23;;;;;;;64.60;25.63;;;9.60;99.90;;;;;;5081756;28;20017;-73
2023/03/20 01:15:51;;;;;;;61.90;24.90;;;9.60;99.90;;;;;;5082271;28;20020;-72
2023/03/20 01:18:18;;;;;;;65.72;25.35;;;9.50;99.90;;;;;;5082014;28;20032;-71
2023/03/20 01:20:44;;;;;;;65.30;24.95;;;9.50;99.90;;;;;;5081958;28;20092;-72
2023/03/20 01:23:10;;;;;;;65.18;25.08;;;9.60;99.90;;;;;;5080047;28;20036;-71
2023/03/20 01:25:37;;;;;;;68.03;25.17;;;9.60;99.90;;;;;;5082049;28;21273;-73
2023/03/20 01:28:12;;;;;;;71.60;25.25;;;9.50;99.90;;;;;;5082147;28;20021;-72
2023/03/20 01:30:38;;;;;;;67.55;24.63;;;9.50;99.90;;;;;;5080669;28;20028;-73
2023/03/20 01:33:15;;;;;;;61.70;25.02;;;9.50;99.90;;;;;;5081868;28;20024;-72
2023/03/20 01:35:41;;;;;;;61.85;24.63;;;9.50;99.90;;;;;;5081809;28;20043;-71
2023/03/20 01:38:19;;;;;;;62.75;24.60;;;9.40;99.90;;;;;;5080290;28;20028;-70
2023/03/20 01:40:57;;;;;;;54.08;22.95;;;9.40;99.90;;;;;;5081241;28;20023;-71
2023/03/20 01:43:23;;;;;;;56.83;23.85;;;9.40;99.90;;;;;;5081527;28;20508;-73
2023/03/20 01:46:07;;;;;;;59.22;24.30;;;9.40;99.90;;;;;;5079958;28;20152;-70
2023/03/20 01:48:51;;;;;;;48.95;21.08;;;9.30;99.90;;;;;;5081569;28;20017;-72
2023/03/20 01:51:21;;;;;;;54.55;22.05;;;9.30;99.90;;;;;;5080267;28;20059;-71
2023/03/20 01:53:56;;;;;;;57.60;21.67;;;9.30;99.90;;;;;;5081246;28;20036;-71
2023/03/20 01:56:21;;;;;;;42.25;17.73;;;9.20;99.90;;;;;;5081816;28;20025;-71
2023/03/20 01:58:57;;;;;;;36.30;16.35;;;9.20;99.90;;;;;;5081165;28;20029;-71
2023/03/20 02:01:24;;;;;;;38.90;14.68;;;9.10;99.90;;;;;;5079949;28;20052;-70
2023/03/20 02:03:50;;;;;;;35.85;14.57;;;9.10;99.90;;;;;;5079749;28;20037;-74
2023/03/20 02:06:19;;;;;;;37.25;15.60;;;9.10;99.90;;;;;;5081525;28;20043;-71
2023/03/20 02:08:48;;;;;;;37.53;14.88;;;9.10;99.90;;;;;;5080990;28;20025;-73
2023/03/20 02:11:15;;;;;;;31.88;14.77;;;9.00;99.90;;;;;;5081114;28;20028;-72
2023/03/20 02:13:41;;;;;;;28.38;13.73;;;9.00;99.90;;;;;;5081240;28;20025;-73
2023/03/20 02:16:15;;;;;;;29.10;14.50;;;9.00;99.90;;;;;;5083488;28;20046;-73
2023/03/20 02:18:43;;;;;;;31.10;13.73;;;9.00;99.90;;;;;;5085545;28;20032;-71
2023/03/20 02:21:41;;;;;;;32.22;13.77;;;9.00;99.90;;;;;;5085157;28;20013;-71
2023/03/20 02:24:28;;;;;;;26.58;12.00;;;8.90;99.90;;;;;;5083576;28;20047;-70
2023/03/20 02:27:19;;;;;;;23.15;11.82;;;8.90;99.90;;;;;;5085355;28;20016;-72
2023/03/20 02:30:06;;;;;;;26.63;11.77;;;8.90;99.90;;;;;;5082572;28;20025;-72
2023/03/20 02:32:31;;;;;;;22.20;9.88;;;8.80;99.90;;;;;;5083369;28;20025;-72
2023/03/20 02:35:34;;;;;;;22.27;10.00;;;8.80;99.90;;;;;;5084846;28;20082;-72
2023/03/20 02:38:05;;;;;;;24.27;9.63;;;8.80;99.90;;;;;;5084794;28;20051;-71
2023/03/20 02:40:47;;;;;;;18.63;9.23;;;8.90;99.90;;;;;;5085222;28;20042;-72
2023/03/20 02:43:22;;;;;;;16.95;8.63;;;8.90;99.90;;;;;;5084876;28;20094;-72
2023/03/20 02:46:03;;;;;;;17.70;9.00;;;8.80;99.90;;;;;;5085009;28;20069;-71
2023/03/20 02:48:40;;;;;;;22.67;10.48;;;8.90;99.90;;;;;;5085085;28;20029;-74
2023/03/20 02:51:16;;;;;;;22.13;10.20;;;8.90;99.90;;;;;;5085010;28;20074;-73
2023/03/20 02:53:56;;;;;;;21.10;9.48;;;8.90;99.90;;;;;;5084603;28;20044;-73
2023/03/20 02:56:31;;;;;;;20.27;9.93;;;8.90;99.90;;;;;;5084620;28;20034;-73
2023/03/20 02:59:01;;;;;;;20.73;9.80;;;8.80;99.90;;;;;;5083193;28;20024;-72
2023/03/20 03:01:35;;;;;;;21.02;10.57;;;8.80;99.90;;;;;;5083454;28;20046;-73
2023/03/20 03:04:10;;;;;;;21.73;9.75;;;8.80;99.90;;;;;;5084135;28;20712;-72
2023/03/20 03:06:38;;;;;;;19.25;9.73;;;8.90;99.90;;;;;;5083397;28;20032;-74
2023/03/20 03:09:28;;;;;;;21.25;10.38;;;8.90;99.90;;;;;;5084533;28;20043;-73
2023/03/20 03:12:02;;;;;;;19.80;9.77;;;8.90;99.90;;;;;;5084389;28;20068;-72
2023/03/20 03:14:39;;;;;;;20.85;9.93;;;8.90;99.90;;;;;;5084283;28;20155;-73
2023/03/20 03:17:06;;;;;;;19.65;9.45;;;8.90;99.90;;;;;;5084101;28;20025;-74
2023/03/20 03:19:35;;;;;;;24.02;10.23;;;9.00;99.90;;;;;;5084130;28;20109;-73
2023/03/20 03:22:00;;;;;;;20.30;10.00;;;9.00;99.90;;;;;;5084165;28;20453;-72
2023/03/20 03:24:32;;;;;;;23.55;10.00;;;8.90;99.90;;;;;;5084309;28;20037;-72
2023/03/20 03:27:01;;;;;;;20.52;9.95;;;8.90;99.90;;;;;;5082370;28;20299;-72
2023/03/20 03:29:32;;;;;;;23.42;10.52;;;8.90;99.90;;;;;;5084084;28;20131;-72
2023/03/20 03:32:01;;;;;;;20.20;10.43;;;8.90;99.90;;;;;;5085035;28;20055;-72
2023/03/20 03:34:27;;;;;;;20.67;10.13;;;8.90;99.90;;;;;;5092723;28;20044;-73
2023/03/20 03:36:59;;;;;;;21.70;9.40;;;8.90;99.90;;;;;;5088130;28;20024;-73
2023/03/20 03:39:39;;;;;;;23.15;10.23;;;8.90;99.90;;;;;;5083001;28;20033;-72
2023/03/20 03:42:16;;;;;;;21.70;10.45;;;8.90;99.90;;;;;;5083769;28;20047;-72
2023/03/20 03:44:50;;;;;;;21.65;10.35;;;8.80;99.90;;;;;;5083693;28;20037;-73
2023/03/20 03:47:23;;;;;;;19.60;9.88;;;8.80;99.90;;;;;;5083804;28;20032;-72
2023/03/20 03:49:55;;;;;;;21.63;9.57;;;8.80;99.90;;;;;;5082554;28;20032;-72
2023/03/20 03:52:23;;;;;;;19.52;9.27;;;8.70;99.90;;;;;;5083684;28;20039;-73
2023/03/20 03:54:59;;;;;;;21.90;10.50;;;8.80;99.90;;;;;;5082485;28;20116;-73
2023/03/20 03:57:31;;;;;;;19.00;9.90;;;8.70;99.90;;;;;;5083530;28;20033;-73
2023/03/20 04:00:00;;;;;;;22.10;10.50;;;8.70;99.90;;;;;;5082197;28;20028;-72
2023/03/20 04:02:26;;;;;;;24.45;10.57;;;8.70;99.90;;;;;;5083226;28;20459;-73
2023/03/20 04:04:53;;;;;;;24.60;10.90;;;8.70;99.90;;;;;;5081862;28;20088;-72
2023/03/20 04:07:19;;;;;;;21.42;10.55;;;8.70;99.90;;;;;;5083026;28;20027;-72
2023/03/20 04:09:44;;;;;;;22.98;9.93;;;8.70;99.90;;;;;;5083434;28;20382;-73
2023/03/20 04:12:32;;;;;;;20.77;10.57;;;8.70;99.90;;;;;;5083286;28;20096;-73
2023/03/20 04:14:57;;;;;;;23.45;10.98;;;8.70;99.90;;;;;;5081944;28;20092;-72
2023/03/20 04:17:23;;;;;;;22.45;11.05;;;8.70;99.90;;;;;;5081927;28;20105;-72
2023/03/20 04:19:48;;;;;;;23.20;11.20;;;8.70;99.90;;;;;;5083173;28;20074;-72
2023/03/20 04:22:14;;;;;;;22.88;10.55;;;8.70;99.90;;;;;;5082862;28;20029;-72
2023/03/20 04:24:40;;;;;;;25.58;11.07;;;8.70;99.90;;;;;;5083181;28;20036;-74
2023/03/20 04:27:05;;;;;;;21.92;10.70;;;8.70;99.90;;;;;;5083016;28;20040;-73
2023/03/20 04:29:31;;;;;;;20.73;10.88;;;8.70;99.90;;;;;;5081799;28;20039;-74
2023/03/20 04:31:58;;;;;;;19.85;9.98;;;8.70;99.90;;;;;;5082528;28;20027;-74
2023/03/20 04:34:24;;;;;;;22.95;10.27;;;8.70;99.90;;;;;;5082743;28;20092;-73
2023/03/20 04:36:50;;;;;;;21.70;11.07;;;8.70;99.90;;;;;;5081492;28;20048;-73
2023/03/20 04:39:15;;;;;;;21.42;11.05;;;8.80;99.90;;;;;;5081405;28;20024;-73
2023/03/20 04:41:41;;;;;;;20.48;10.85;;;8.70;99.90;;;;;;5080762;28;20044;-74
2023/03/20 04:44:07;;;;;;;19.90;10.02;;;8.70;99.90;;;;;;5082781;28;20032;-72
2023/03/20 04:46:32;;;;;;;19.98;10.15;;;8.80;99.90;;;;;;5081531;28;20432;-74
2023/03/20 04:48:58;;;;;;;21.65;10.10;;;8.70;99.90;;;;;;5082857;28;20090;-73
2023/03/20 04:51:23;;;;;;;25.13;11.63;;;8.70;99.90;;;;;;5081218;28;20024;-74
2023/03/20 04:53:49;;;;;;;24.40;11.15;;;8.70;99.90;;;;;;5082498;28;20039;-73
2023/03/20 04:56:15;;;;;;;18.92;10.55;;;8.70;99.90;;;;;;5080513;28;20024;-73
2023/03/20 04:58:41;;;;;;;19.30;9.90;;;8.80;99.90;;;;;;5081175;28;20043;-73
2023/03/20 05:01:07;;;;;;;21.58;10.80;;;8.70;99.90;;;;;;5081242;28;20050;-74
2023/03/20 05:03:32;;;;;;;22.90;10.50;;;8.70;99.90;;;;;;5080476;28;20043;-73
2023/03/20 05:05:58;;;;;;;20.30;10.68;;;8.80;99.90;;;;;;5082339;28;20086;-74
2023/03/20 05:08:24;;;;;;;21.77;10.40;;;8.70;99.90;;;;;;5081801;28;20031;-73
2023/03/20 05:10:50;;;;;;;20.55;10.73;;;8.70;99.90;;;;;;5081874;28;20032;-73
2023/03/20 05:13:16;;;;;;;19.05;10.70;;;8.70;99.90;;;;;;5082143;28;20033;-73
2023/03/20 05:15:42;;;;;;;21.98;10.93;;;8.70;99.90;;;;;;5082191;28;20036;-73
2023/03/20 05:18:08;;;;;;;24.35;11.13;;;8.70;99.90;;;;;;5082224;28;20086;-73
2023/03/20 05:20:35;;;;;;;22.20;10.43;;;8.70;99.90;;;;;;5081420;28;20012;-72
2023/03/20 05:23:01;;;;;;;21.77;10.38;;;8.70;99.90;;;;;;5082182;28;20040;-73
2023/03/20 05:25:27;;;;;;;25.55;11.70;;;8.70;99.90;;;;;;5082119;28;20037;-75
2023/03/20 05:27:54;;;;;;;23.98;10.73;;;8.60;99.90;;;;;;5080411;28;20055;-73
2023/03/20 05:30:20;;;;;;;21.85;10.43;;;8.70;99.90;;;;;;5081627;28;20029;-74
2023/03/20 05:32:49;;;;;;;22.45;11.15;;;8.70;99.90;;;;;;5081889;28;20013;-74
2023/03/20 05:35:15;;;;;;;24.40;10.40;;;8.70;99.90;;;;;;5081529;28;20017;-74
2023/03/20 05:37:40;;;;;;;22.55;10.93;;;8.70;99.90;;;;;;5081625;28;20047;-74
2023/03/20 05:40:07;;;;;;;22.23;10.20;;;8.70;99.90;;;;;;5080278;28;20056;-73
2023/03/20 05:42:32;;;;;;;25.95;10.73;;;8.70;99.90;;;;;;5080242;28;20048;-74
2023/03/20 05:44:58;;;;;;;27.05;11.60;;;8.70;99.90;;;;;;5080556;28;20051;-73
2023/03/20 05:47:24;;;;;;;23.80;11.57;;;8.70;99.90;;;;;;5080625;28;20032;-75
2023/03/20 05:49:49;;;;;;;25.60;11.50;;;8.70;99.90;;;;;;5080285;28;20019;-73
2023/03/20 05:52:15;;;;;;;21.30;11.05;;;8.70;99.90;;;;;;5081292;28;20028;-72
2023/03/20 05:54:41;;;;;;;25.67;11.80;;;8.70;99.90;;;;;;5080305;28;20093;-73
2023/03/20 05:57:06;;;;;;;24.27;11.27;;;8.70;99.90;;;;;;5081619;28;20165;-75
2023/03/20 05:59:32;;;;;;;25.27;11.65;;;8.70;99.90;;;;;;5082019;28;20024;-74
2023/03/20 06:01:57;;;;;;;21.77;10.77;;;8.70;99.90;;;;;;5080269;28;20020;-73
2023/03/20 06:04:23;;;;;;;24.23;11.20;;;8.70;99.90;;;;;;5080134;28;20123;-73
2023/03/20 06:06:49;;;;;;;25.42;11.38;;;8.70;99.90;;;;;;5081694;28;20044;-72
2023/03/20 06:09:14;;;;;;;22.85;11.48;;;8.70;99.90;;;;;;5079846;28;20036;-72
2023/03/20 06:11:40;;;;;;;24.80;11.48;;;8.80;99.90;;;;;;5081429;28;20047;-72
2023/03/20 06:14:05;;;;;;;23.38;9.98;;;8.80;99.90;;;;;;5081608;28;20032;-72
2023/03/20 06:16:31;;;;;;;24.00;11.75;;;8.80;99.90;;;;;;5081611;28;20024;-72
2023/03/20 06:18:57;;;;;;;25.00;11.93;;;8.80;99.90;;;;;;5081543;28;20370;-73
2023/03/20 06:21:22;;;;;;;28.80;11.82;;;8.80;99.90;;;;;;5081591;28;20509;-71
2023/03/20 06:23:48;;;;;;;23.88;11.25;;;8.80;99.90;;;;;;5079868;28;20063;-71
2023/03/20 06:26:14;;;;;;;25.13;11.38;;;8.80;99.90;;;;;;5081360;28;20024;-73
2023/03/20 06:28:40;;;;;;;22.45;11.00;;;8.80;99.90;;;;;;5081547;28;20088;-73
2023/03/20 06:31:07;;;;;;;24.58;10.95;;;8.80;99.90;;;;;;5080195;28;20052;-73
2023/03/20 06:33:33;;;;;;;23.60;10.82;;;8.80;99.90;;;;;;5080509;28;20020;-70
2023/03/20 06:35:59;;;;;;;22.25;10.98;;;8.70;99.90;;;;;;5079667;28;20491;-71
2023/03/20 06:38:24;;;;;;;23.73;11.98;;;8.80;99.90;;;;;;5080993;28;20029;-70
2023/03/20 06:40:50;;;;;;;28.73;11.30;;;8.70;99.90;;;;;;5080677;28;20024;-71
2023/03/20 06:43:15;;;;;;;23.92;10.35;;;8.70;99.90;;;;;;5079668;28;20040;-69
2023/03/20 06:45:41;;;;;;;23.45;10.13;;;8.80;99.90;;;;;;5081215;28;20017;-70
2023/03/20 06:48:08;;;;;;;26.60;10.00;;;8.80;99.90;;;;;;5079840;28;20115;-70
2023/03/20 06:50:33;;;;;;;25.92;10.80;;;8.80;99.90;;;;;;5077790;28;20029;-70
2023/03/20 06:52:59;;;;;;;23.88;10.52;;;8.80;99.90;;;;;;5079600;28;20028;-70
2023/03/20 06:55:24;;;;;;;22.58;10.48;;;8.90;99.90;;;;;;5077362;28;20120;-70
2023/03/20 06:57:50;;;;;;;23.13;10.63;;;8.80;99.90;;;;;;5078901;28;20084;-71
2023/03/20 07:00:16;;;;;;;26.92;10.48;;;8.80;99.90;;;;;;5079974;28;20028;-71
2023/03/20 07:02:42;;;;;;;23.63;10.75;;;8.80;99.90;;;;;;5081711;28;20021;-71
2023/03/20 07:05:09;;;;;;;26.35;10.45;;;8.80;99.90;;;;;;5084642;28;20028;-71
2023/03/20 07:07:35;;;;;;;24.85;10.63;;;8.90;99.90;;;;;;5082538;28;20035;-72
2023/03/20 07:10:01;;;;;;;24.60;10.63;;;8.90;99.90;;;;;;5084261;28;20020;-71
2023/03/20 07:12:27;;;;;;;27.50;11.52;;;8.90;99.90;;;;;;5082197;28;20082;-71
2023/03/20 07:14:53;;;;;;;22.67;10.50;;;9.00;99.90;;;;;;5082467;28;20107;-72
2023/03/20 07:17:19;;;;;;;24.70;11.50;;;9.00;99.90;;;;;;5081212;28;20050;-72
2023/03/20 07:19:45;;;;;;;29.30;10.95;;;9.00;99.90;;;;;;5083750;28;20020;-72
2023/03/20 07:22:20;;;;;;;26.75;11.85;;;9.00;99.90;;;;;;5082087;28;20107;-70
2023/03/20 07:24:46;;;;;;;25.35;11.20;;;9.00;99.90;;;;;;5082366;28;20039;-70
2023/03/20 07:27:11;;;;;;;25.33;11.85;;;9.00;99.90;;;;;;5084085;28;20095;-71
2023/03/20 07:29:37;;;;;;;28.02;12.45;;;9.00;99.90;;;;;;5084151;28;20051;-71
2023/03/20 07:32:03;;;;;;;24.50;11.98;;;9.00;99.90;;;;;;5083580;28;20028;-73
2023/03/20 07:34:28;;;;;;;27.27;12.00;;;9.00;99.90;;;;;;5081251;28;20131;-72
2023/03/20 07:36:54;;;;;;;28.90;12.63;;;9.00;99.90;;;;;;5082355;28;20033;-71
2023/03/20 07:39:20;;;;;;;26.27;12.73;;;9.10;99.90;;;;;;5083327;28;20048;-71
2023/03/20 07:41:46;;;;;;;27.33;12.27;;;9.10;99.90;;;;;;5082353;28;20509;-71
2023/03/20 07:44:13;;;;;;;27.00;12.05;;;9.10;99.90;;;;;;5081820;28;20088;-72
2023/03/20 07:46:39;;;;;;;24.45;12.10;;;9.10;99.90;;;;;;5083169;28;20035;-71
2023/03/20 07:49:06;;;;;;;29.25;12.82;;;9.10;99.90;;;;;;5082963;28;20028;-71
2023/03/20 07:51:32;;;;;;;21.83;12.85;;;9.10;99.90;;;;;;5083059;28;20032;-69
2023/03/20 07:53:58;;;;;;;25.75;12.10;;;9.10;99.90;;;;;;5082135;28;20140;-70
2023/03/20 07:56:23;;;;;;;28.92;12.43;;;9.10;99.90;;;;;;5078675;28;20133;-71
2023/03/20 07:58:49;;;;;;;24.52;12.07;;;9.10;99.90;;;;;;5079428;28;20488;-70
2023/03/20 08:01:15;;;;;;;29.92;12.57;;;9.00;99.90;;;;;;5083013;28;20037;-71
2023/03/20 08:03:40;;;;;;;31.10;13.82;;;9.10;99.90;;;;;;5081734;28;20045;-72
2023/03/20 08:06:08;;;;;;;24.00;12.02;;;9.10;99.90;;;;;;5082851;28;20031;-72
2023/03/20 08:08:34;;;;;;;23.70;11.68;;;9.00;99.90;;;;;;5080424;28;20043;-71
2023/03/20 08:11:00;;;;;;;28.17;12.52;;;9.00;99.90;;;;;;5082401;28;20017;-71
2023/03/20 08:13:25;;;;;;;25.73;11.45;;;9.10;99.90;;;;;;5082885;28;20020;-71
2023/03/20 08:15:51;;;;;;;23.52;10.88;;;9.10;99.90;;;;;;5079468;28;20033;-72
2023/03/20 08:18:16;;;;;;;20.98;10.65;;;9.10;99.90;;;;;;5077798;28;20031;-71
2023/03/20 08:20:42;;;;;;;28.05;11.80;;;9.10;99.90;;;;;;5079434;28;20028;-70
2023/03/20 08:23:08;;;;;;;24.88;10.68;;;9.10;99.90;;;;;;5083048;28;20045;-70
2023/03/20 08:25:33;;;;;;;24.30;10.45;;;9.10;99.90;;;;;;5082102;28;20036;-72
2023/03/20 08:28:00;;;;;;;27.77;11.20;;;9.10;99.90;;;;;;5083448;28;20042;-71
2023/03/20 08:30:26;;;;;;;22.02;9.50;;;9.20;99.90;;;;;;5082991;28;20123;-71
2023/03/20 08:32:52;;;;;;;19.70;9.68;;;9.20;99.90;;;;;;5079324;28;20051;-71
2023/03/20 08:35:17;;;;;;;23.67;10.27;;;9.30;99.90;;;;;;5082749;28;20108;-70
2023/03/20 08:37:43;;;;;;;26.15;9.70;;;9.30;99.90;;;;;;5080991;28;20024;-69
2023/03/20 08:40:10;;;;;;;20.60;9.38;;;9.30;99.90;;;;;;5081220;28;20021;-71
2023/03/20 08:42:36;;;;;;;20.73;8.65;;;9.30;99.90;;;;;;5082254;28;20075;-71
2023/03/20 08:45:01;;;;;;;20.85;9.35;;;9.30;99.90;;;;;;5081086;28;20048;-69
2023/03/20 08:47:27;;;;;;;22.30;9.43;;;9.40;99.90;;;;;;5081578;28;20132;-71
2023/03/20 08:49:52;;;;;;;19.73;9.48;;;9.50;99.90;;;;;;5081582;28;20032;-70
2023/03/20 08:52:18;;;;;;;15.00;7.78;;;9.50;99.90;;;;;;5081212;28;20044;-70
2023/03/20 08:54:43;;;;;;;24.35;8.88;;;9.50;99.90;;;;;;5082610;28;20028;-70
2023/03/20 08:57:09;;;;;;;22.75;9.15;;;9.50;99.90;;;;;;5082102;28;20024;-69
2023/03/20 08:59:35;;;;;;;26.20;9.35;;;9.60;99.90;;;;;;5082757;28;20020;-71
2023/03/20 09:02:01;;;;;;;20.25;9.57;;;9.60;99.90;;;;;;5080882;28;20474;-71
2023/03/20 09:04:26;;;;;;;20.13;9.35;;;9.60;99.90;;;;;;5082105;28;20037;-69
2023/03/20 09:06:52;;;;;;;23.80;9.07;;;9.60;99.90;;;;;;5082069;28;20024;-70
2023/03/20 09:09:20;;;;;;;26.13;9.35;;;9.60;99.90;;;;;;5080721;28;20032;-71
2023/03/20 09:11:46;;;;;;;20.05;9.75;;;9.70;99.90;;;;;;5075827;28;20032;-71
2023/03/20 09:14:11;;;;;;;22.95;9.88;;;9.70;99.90;;;;;;5080267;28;20034;-71
2023/03/20 09:16:37;;;;;;;19.90;9.90;;;9.80;99.90;;;;;;5081027;28;20027;-70
2023/03/20 09:19:03;;;;;;;16.15;8.68;;;9.80;99.90;;;;;;5079465;28;20024;-70
2023/03/20 09:21:28;;;;;;;23.95;9.60;;;9.90;99.90;;;;;;5076944;28;20024;-69
2023/03/20 09:23:54;;;;;;;15.65;8.82;;;9.90;99.90;;;;;;5077939;28;20172;-70
2023/03/20 09:26:19;;;;;;;18.45;8.70;;;9.90;99.90;;;;;;5071200;28;20071;-70
2023/03/20 09:28:45;;;;;;;19.45;9.18;;;9.90;99.90;;;;;;5069575;28;20051;-70
2023/03/20 09:31:11;;;;;;;20.02;9.07;;;10.00;99.90;;;;;;5068736;28;20025;-71
2023/03/20 09:33:36;;;;;;;20.90;9.07;;;10.00;99.90;;;;;;5080446;28;20025;-70
2023/03/20 09:36:03;;;;;;;16.92;8.20;;;10.00;99.90;;;;;;5079095;28;20032;-69
2023/03/20 09:38:28;;;;;;;18.58;9.05;;;10.00;99.90;;;;;;5072663;28;20036;-71
2023/03/20 09:41:03;;;;;;;18.70;8.77;;;10.00;99.90;;;;;;5076454;28;20046;-71
2023/03/20 09:44:07;;;;;;;17.25;8.82;;;10.00;99.90;;;;;;5077815;28;20090;-70
2023/03/20 09:47:07;;;;;;;22.10;8.40;;;10.10;99.90;;;;;;5078772;28;20075;-70
2023/03/20 09:50:00;;;;;;;19.83;7.68;;;10.20;99.90;;;;;;5074938;28;20044;-71
2023/03/20 09:52:31;;;;;;;17.40;7.97;;;10.40;99.90;;;;;;5080429;28;20028;-72
2023/03/20 09:55:16;;;;;;;19.17;8.50;;;10.50;99.90;;;;;;5079867;28;20149;-70
2023/03/20 09:57:48;;;;;;;18.13;7.80;;;10.50;99.90;;;;;;5078979;28;20060;-70
2023/03/20 10:00:16;;;;;;;21.42;8.35;;;10.50;99.90;;;;;;5076693;28;20045;-69
2023/03/20 10:02:49;;;;;;;17.10;7.22;;;10.50;99.90;;;;;;5078667;28;20119;-71
2023/03/20 10:05:28;;;;;;;15.00;7.20;;;10.60;99.90;;;;;;5076641;28;20103;-70
2023/03/20 10:07:56;;;;;;;14.18;7.07;;;10.60;99.90;;;;;;5079609;28;20047;-70
2023/03/20 10:10:29;;;;;;;15.55;7.25;;;10.60;99.90;;;;;;5075860;28;20045;-70
2023/03/20 10:13:18;;;;;;;16.23;7.40;;;10.60;99.90;;;;;;5080160;28;20637;-70
2023/03/20 10:15:56;;;;;;;13.70;6.75;;;10.60;99.90;;;;;;5080361;28;20033;-70
2023/03/20 10:18:28;;;;;;;16.48;7.30;;;10.70;99.90;;;;;;5078976;28;20029;-70
2023/03/20 10:20:59;;;;;;;12.82;7.28;;;10.60;99.90;;;;;;5079779;28;20060;-70
2023/03/20 10:23:35;;;;;;;15.45;6.95;;;10.60;99.90;;;;;;5079354;28;20029;-70
2023/03/20 10:26:10;;;;;;;16.73;7.65;;;10.60;99.90;;;;;;5080023;28;20044;-71
2023/03/20 10:29:00;;;;;;;15.07;7.25;;;10.60;99.90;;;;;;5080177;28;20021;-75
2023/03/20 10:31:35;;;;;;;18.58;7.40;;;10.60;99.90;;;;;;5075126;28;20033;-71
2023/03/20 10:34:40;;;;;;;15.55;6.88;;;10.70;99.90;;;;;;5077071;28;20041;-71
2023/03/20 10:37:21;;;;;;;14.02;6.50;;;10.80;99.90;;;;;;5078364;28;20056;-72
2023/03/20 10:40:12;;;;;;;15.32;6.55;;;10.90;99.90;;;;;;5081264;28;20044;-71
2023/03/20 10:42:42;;;;;;;13.90;6.95;;;11.00;99.90;;;;;;5082774;28;20071;-71
2023/03/20 10:45:18;;;;;;;16.92;6.32;;;11.00;99.90;;;;;;5083913;28;20049;-70
2023/03/20 10:47:50;;;;;;;16.40;6.78;;;11.10;99.90;;;;;;5084185;28;20055;-69
2023/03/20 10:50:18;;;;;;;14.80;6.63;;;11.10;99.90;;;;;;5077933;28;20029;-68
2023/03/20 10:52:47;;;;;;;17.13;6.68;;;11.20;99.90;;;;;;5080409;28;20055;-71
2023/03/20 10:55:19;;;;;;;14.75;6.47;;;11.20;99.90;;;;;;5083125;28;20187;-71
2023/03/20 10:57:55;;;;;;;13.77;6.50;;;11.20;99.90;;;;;;5083350;28;20420;-70
2023/03/20 11:00:23;;;;;;;14.82;5.95;;;11.30;99.90;;;;;;5083632;28;20024;-71
2023/03/20 11:02:49;;;;;;;13.05;6.50;;;11.30;99.90;;;;;;5082260;28;20028;-71
2023/03/20 11:05:32;;;;;;;14.93;5.90;;;11.30;99.90;;;;;;5083167;28;20020;-72
2023/03/20 11:08:07;;;;;;;17.73;6.38;;;11.40;99.90;;;;;;5082358;28;20109;-71
2023/03/20 11:10:34;;;;;;;;;;;11.60;99.90;;;;;;5079325;28;20039;-71
2023/03/20 11:13:23;;;;;;;15.93;5.53;;;11.70;99.90;;;;;;5083531;28;19917;-70
2023/03/20 11:15:51;;;;;;;11.70;5.75;;;11.90;99.90;;;;;;5083633;28;20041;-71
2023/03/20 11:18:17;;;;;;;13.07;5.35;;;12.00;99.90;;;;;;5082074;28;20032;-71
2023/03/20 11:20:50;;;;;;;14.95;5.88;;;12.00;99.90;;;;;;5082687;28;20017;-70
2023/03/20 11:23:34;;;;;;;14.70;5.43;;;11.90;99.90;;;;;;5082331;28;20062;-71
2023/03/20 11:26:29;;;;;;;12.63;5.07;;;11.90;99.90;;;;;;5083989;28;20031;-72
2023/03/20 11:28:56;;;;;;;;;;;11.90;99.90;;;;;;5084731;28;20029;-71
2023/03/20 11:31:36;;;;;;;12.40;5.10;;;11.80;99.90;;;;;;5084154;28;19930;-71
2023/03/20 11:34:10;;;;;;;11.60;4.95;;;11.80;99.90;;;;;;5083792;28;21715;-69
2023/03/20 11:36:39;;;;;;;9.77;5.05;;;11.80;99.90;;;;;;5082879;28;20032;-70
2023/03/20 11:39:14;;;;;;;15.90;5.25;;;11.90;99.90;;;;;;5082583;28;20106;-70
2023/03/20 11:41:49;;;;;;;10.73;5.00;;;11.90;99.90;;;;;;5083942;28;20091;-69
2023/03/20 11:44:25;;;;;;;16.40;5.55;;;11.90;99.90;;;;;;5081788;28;20033;-72
2023/03/20 11:47:00;;;;;;;12.50;5.15;;;12.00;99.90;;;;;;5079366;28;20028;-71
2023/03/20 11:49:26;;;;;;;14.52;5.57;;;12.10;99.90;;;;;;5081136;28;20044;-71
2023/03/20 11:51:54;;;;;;;15.75;5.53;;;12.10;99.90;;;;;;5083362;28;20032;-72
2023/03/20 11:54:23;;;;;;;11.93;5.50;;;12.40;99.90;;;;;;5081624;28;20474;-71
2023/03/20 11:56:59;;;;;;;13.73;5.90;;;12.70;99.90;;;;;;5081490;28;20054;-69
2023/03/20 11:59:34;;;;;;;13.07;5.55;;;12.90;99.90;;;;;;5082040;28;20496;-70
2023/03/20 12:02:03;;;;;;;12.35;5.80;;;13.40;99.90;;;;;;5082670;28;20032;-70
2023/03/20 12:04:36;;;;;;;14.57;5.22;;;13.60;99.90;;;;;;5083566;28;20063;-70
2023/03/20 12:07:13;;;;;;;13.63;5.55;;;13.60;99.90;;;;;;5082069;28;20050;-69
2023/03/20 12:10:05;;;;;;;13.07;5.53;;;13.40;99.90;;;;;;5080151;28;20499;-69
2023/03/20 12:12:34;;;;;;;13.65;5.90;;;13.20;99.90;;;;;;5083357;28;20024;-70
2023/03/20 12:15:12;;;;;;;11.50;5.88;;;13.10;99.90;;;;;;5083706;28;20028;-71
2023/03/20 12:18:20;;;;;;;14.30;5.72;;;12.90;99.90;;;;;;5080775;28;20024;-69
2023/03/20 12:21:08;;;;;;;15.38;6.05;;;12.70;99.90;;;;;;5081619;28;20037;-70
2023/03/20 12:23:36;;;;;;;11.48;5.57;;;12.50;99.90;;;;;;5080762;28;20451;-72
2023/03/20 12:26:06;;;;;;;15.18;6.32;;;12.40;99.90;;;;;;5083113;28;20028;-70
2023/03/20 12:28:51;;;;;;;15.02;6.47;;;12.30;99.90;;;;;;5082602;28;20573;-70
2023/03/20 12:31:40;;;;;;;12.15;6.13;;;12.20;99.90;;;;;;5082756;28;20020;-69
2023/03/20 12:34:19;;;;;;;16.10;6.47;;;12.10;99.90;;;;;;5089844;28;20115;-70
2023/03/20 12:36:47;;;;;;;16.98;6.88;;;12.00;99.90;;;;;;5082110;28;20028;-70
2023/03/20 12:39:23;;;;;;;20.38;6.70;;;11.80;99.90;;;;;;5082666;28;20021;-70
2023/03/20 12:42:06;;;;;;;16.50;7.05;;;11.70;99.90;;;;;;5082127;28;20048;-69
2023/03/20 12:44:35;;;;;;;12.73;6.85;;;11.60;99.90;;;;;;5081442;28;20032;-69
2023/03/20 12:47:38;;;;;;;20.35;7.55;;;11.60;99.90;;;;;;5077276;28;20098;-71
2023/03/20 12:50:28;;;;;;;14.77;7.43;;;11.60;99.90;;;;;;5081940;28;20037;-70
2023/03/20 12:53:39;;;;;;;17.65;8.25;;;11.50;99.90;;;;;;5082573;28;20033;-72
2023/03/20 12:56:19;;;;;;;16.80;7.70;;;11.50;99.90;;;;;;5078930;28;20617;-69